Time;durP1;ratioP1;P1;durP2;ratioP2;P2;SDS_P1;SDS_P2;PMS_P1;PMS_P2;Temp;Humidity;BMP_temperature;BMP_pressure;BME280_temperature;BME280_humidity;BME280_pressure;Samples;Min_cycle;Max_cycle;Signal;HPM_P1;HPM_P2
2023/03/03 00:00:08;;;;;;;43.20;27.43;;;3.50;99.90;;;;;;5028301;28;20206;-70
2023/03/03 00:02:34;;;;;;;37.83;26.70;;;3.50;99.90;;;;;;5029320;28;20241;-70
2023/03/03 00:04:59;;;;;;;41.27;27.07;;;3.40;99.90;;;;;;5029564;28;20433;-71
2023/03/03 00:07:25;;;;;;;35.27;25.97;;;3.50;99.90;;;;;;5027784;28;20229;-70
2023/03/03 00:09:50;;;;;;;40.00;28.33;;;3.50;99.90;;;;;;5028874;28;20186;-70
2023/03/03 00:12:22;;;;;;;39.67;27.60;;;3.50;99.90;;;;;;5028953;28;20316;-70
2023/03/03 00:14:47;;;;;;;46.03;28.47;;;3.40;99.90;;;;;;5025709;28;20220;-71
2023/03/03 00:17:27;;;;;;;39.93;26.17;;;3.30;99.90;;;;;;5037286;28;21081;-70
2023/03/03 00:19:53;;;;;;;42.53;28.43;;;3.20;99.90;;;;;;5036840;28;20664;-70
2023/03/03 00:22:30;;;;;;;45.53;28.50;;;3.10;99.90;;;;;;5038790;28;20486;-70
2023/03/03 00:25:00;;;;;;;41.27;28.40;;;3.10;99.90;;;;;;5028454;28;20253;-71
2023/03/03 00:27:30;;;;;;;41.73;29.00;;;3.20;99.90;;;;;;5042047;28;20448;-70
2023/03/03 00:29:57;;;;;;;40.63;27.57;;;3.20;99.90;;;;;;5037160;28;20441;-70
2023/03/03 00:32:49;;;;;;;38.83;26.30;;;3.10;99.90;;;;;;5039138;28;20941;-71
2023/03/03 00:35:30;;;;;;;43.40;28.23;;;3.00;99.90;;;;;;5034220;28;20805;-70
2023/03/03 00:37:58;;;;;;;40.97;28.50;;;3.00;99.90;;;;;;5038622;28;20995;-70
2023/03/03 00:40:35;;;;;;;42.37;28.13;;;2.90;99.90;;;;;;5041484;28;20474;-70
2023/03/03 00:43:11;;;;;;;40.83;28.20;;;2.90;99.90;;;;;;5033267;28;20776;-70
2023/03/03 00:45:45;;;;;;;43.93;29.13;;;2.90;99.90;;;;;;5042930;28;20539;-70
2023/03/03 00:48:29;;;;;;;47.90;29.20;;;2.80;99.90;;;;;;5033283;28;20455;-70
2023/03/03 00:50:57;;;;;;;47.77;30.00;;;2.90;99.90;;;;;;5033719;28;20436;-70
2023/03/03 00:53:25;;;;;;;42.93;27.57;;;2.80;99.90;;;;;;5029189;28;20524;-70
2023/03/03 00:55:52;;;;;;;45.80;27.97;;;2.80;99.90;;;;;;5033958;28;20448;-70
2023/03/03 00:58:20;;;;;;;43.40;28.43;;;2.70;99.90;;;;;;5030942;28;20543;-70
2023/03/03 01:00:47;;;;;;;44.13;28.50;;;2.70;99.90;;;;;;5032484;28;20499;-70
2023/03/03 01:03:20;;;;;;;40.00;29.70;;;2.60;99.90;;;;;;5033655;28;20483;-70
2023/03/03 01:05:46;;;;;;;42.20;28.40;;;2.60;99.90;;;;;;5032086;28;20486;-70
2023/03/03 01:08:12;;;;;;;39.60;27.80;;;2.60;99.90;;;;;;5027148;28;21010;-70
2023/03/03 01:10:49;;;;;;;41.30;27.00;;;2.60;99.90;;;;;;5033524;28;20432;-70
2023/03/03 01:13:15;;;;;;;42.30;27.50;;;2.50;99.90;;;;;;5032585;28;20178;-70
2023/03/03 01:15:41;;;;;;;41.97;28.07;;;2.40;99.90;;;;;;5033122;28;20984;-70
2023/03/03 01:18:10;;;;;;;50.07;28.73;;;2.40;99.90;;;;;;5060799;23;20502;-70
2023/03/03 01:20:36;;;;;;;42.63;30.60;;;2.40;99.90;;;;;;5055542;28;20459;-70
2023/03/03 01:23:02;;;;;;;45.50;30.60;;;2.40;99.90;;;;;;5064977;28;20431;-71
2023/03/03 01:25:27;;;;;;;44.30;30.30;;;2.40;99.90;;;;;;5064891;28;20438;-70
2023/03/03 01:27:53;;;;;;;42.43;29.37;;;2.30;99.90;;;;;;5050359;28;20201;-70
2023/03/03 01:30:18;;;;;;;42.77;27.80;;;2.40;99.90;;;;;;5047305;28;20181;-71
2023/03/03 01:32:44;;;;;;;46.70;28.67;;;2.40;99.90;;;;;;5044054;28;20190;-71
2023/03/03 01:35:10;;;;;;;46.67;29.50;;;2.40;99.90;;;;;;5045027;28;20189;-71
2023/03/03 01:37:35;;;;;;;39.93;29.30;;;2.40;99.90;;;;;;5041208;28;20213;-71
2023/03/03 01:40:02;;;;;;;47.70;28.97;;;2.40;99.90;;;;;;5044563;28;20201;-71
2023/03/03 01:42:28;;;;;;;42.63;28.10;;;2.40;99.90;;;;;;5038687;28;20178;-71
2023/03/03 01:45:30;;;;;;;43.07;29.00;;;2.40;99.90;;;;;;5044753;28;20436;-71
2023/03/03 01:47:59;;;;;;;35.80;25.77;;;2.30;99.90;;;;;;5028422;28;20874;-71
2023/03/03 01:50:38;;;;;;;45.83;29.80;;;2.30;99.90;;;;;;5039190;28;20954;-71
2023/03/03 01:53:08;;;;;;;45.10;27.97;;;2.30;99.90;;;;;;5030331;28;20437;-71
2023/03/03 01:55:38;;;;;;;41.77;28.37;;;2.20;99.90;;;;;;5036726;28;20537;-72
2023/03/03 01:58:12;;;;;;;37.07;26.00;;;2.10;99.90;;;;;;5031818;28;20463;-71
2023/03/03 02:00:40;;;;;;;46.53;30.20;;;2.00;99.90;;;;;;5030199;28;20488;-71
2023/03/03 02:03:05;;;;;;;52.30;29.57;;;2.00;99.90;;;;;;5037030;28;20445;-70
2023/03/03 02:05:32;;;;;;;45.97;29.40;;;2.00;99.90;;;;;;5031087;28;20429;-71
2023/03/03 02:07:58;;;;;;;48.90;31.43;;;1.90;99.90;;;;;;5033569;28;20278;-71
2023/03/03 02:10:23;;;;;;;44.90;28.53;;;2.00;99.90;;;;;;5029658;28;20532;-70
2023/03/03 02:12:52;;;;;;;47.67;31.93;;;2.00;99.90;;;;;;5037944;28;20641;-71
2023/03/03 02:15:22;;;;;;;42.63;29.53;;;2.00;99.90;;;;;;5030452;28;20674;-71
2023/03/03 02:17:51;;;;;;;50.70;31.90;;;2.00;99.90;;;;;;5025433;28;20500;-71
2023/03/03 02:21:00;;;;;;;46.60;30.57;;;2.00;99.90;;;;;;5045000;28;20475;-71
2023/03/03 02:23:31;;;;;;;44.17;28.77;;;2.00;99.90;;;;;;5036982;28;20447;-71
2023/03/03 02:25:57;;;;;;;41.90;26.53;;;2.00;99.90;;;;;;5040221;28;20832;-71
2023/03/03 02:28:26;;;;;;;50.57;32.27;;;2.00;99.90;;;;;;5039714;28;20452;-71
2023/03/03 02:30:55;;;;;;;37.67;24.60;;;1.90;99.90;;;;;;5045222;28;20190;-71
2023/03/03 02:33:21;;;;;;;41.90;27.27;;;1.90;99.90;;;;;;5034229;28;20441;-71
2023/03/03 02:35:47;;;;;;;45.10;28.80;;;1.90;99.90;;;;;;5034722;28;20459;-71
2023/03/03 02:38:18;;;;;;;42.10;27.93;;;1.80;99.90;;;;;;5041305;28;20994;-70
2023/03/03 02:41:10;;;;;;;49.50;28.30;;;1.80;99.90;;;;;;5045626;28;20205;-71
2023/03/03 02:43:59;;;;;;;42.17;28.20;;;1.80;99.90;;;;;;5041672;28;20451;-71
2023/03/03 02:46:26;;;;;;;50.10;29.50;;;1.80;99.90;;;;;;5044435;28;20481;-71
2023/03/03 02:48:51;;;;;;;38.50;26.67;;;1.80;99.90;;;;;;5045041;28;20439;-70
2023/03/03 02:51:17;;;;;;;37.33;27.00;;;1.80;99.90;;;;;;5027320;28;20949;-70
2023/03/03 02:53:42;;;;;;;40.43;26.20;;;1.90;99.90;;;;;;5030563;28;20178;-71
2023/03/03 02:56:08;;;;;;;46.97;29.70;;;1.90;99.90;;;;;;5034908;28;20224;-71
2023/03/03 02:58:35;;;;;;;43.40;27.97;;;2.10;99.90;;;;;;5030746;28;20194;-70
2023/03/03 03:01:00;;;;;;;41.50;26.63;;;2.00;99.90;;;;;;5029299;28;20691;-71
2023/03/03 03:03:26;;;;;;;42.50;28.10;;;2.00;99.90;;;;;;5030673;28;20517;-71
2023/03/03 03:05:51;;;;;;;41.23;30.50;;;2.00;99.90;;;;;;5031890;28;20662;-71
2023/03/03 03:08:17;;;;;;;43.10;28.07;;;2.10;99.90;;;;;;5028977;28;20272;-71
2023/03/03 03:10:42;;;;;;;40.63;28.27;;;2.20;99.90;;;;;;5029807;28;20576;-71
2023/03/03 03:13:08;;;;;;;43.43;27.23;;;2.30;99.90;;;;;;5032733;28;20715;-71
2023/03/03 03:15:35;;;;;;;38.70;27.80;;;2.40;99.90;;;;;;5030425;28;20593;-71
2023/03/03 03:18:00;;;;;;;38.97;28.60;;;2.40;99.90;;;;;;5030308;28;20302;-71
2023/03/03 03:20:26;;;;;;;45.73;26.07;;;2.40;99.90;;;;;;5031258;28;20899;-71
2023/03/03 03:22:51;;;;;;;40.93;28.73;;;2.40;99.90;;;;;;5029327;28;20235;-71
2023/03/03 03:25:17;;;;;;;45.73;27.50;;;2.40;99.90;;;;;;5029495;28;20227;-70
2023/03/03 03:27:42;;;;;;;44.57;27.10;;;2.40;99.90;;;;;;5030323;28;20198;-71
2023/03/03 03:30:08;;;;;;;39.10;27.50;;;2.40;99.90;;;;;;5042220;28;20202;-71
2023/03/03 03:32:33;;;;;;;38.60;27.30;;;2.40;99.90;;;;;;5032097;28;20186;-71
2023/03/03 03:34:59;;;;;;;40.87;27.93;;;2.40;99.90;;;;;;5032270;28;20464;-71
2023/03/03 03:37:24;;;;;;;38.30;25.23;;;2.40;99.90;;;;;;5032537;28;20213;-71
2023/03/03 03:39:50;;;;;;;39.50;26.63;;;2.50;99.90;;;;;;5029236;28;20201;-71
2023/03/03 03:42:16;;;;;;;38.17;26.77;;;2.60;99.90;;;;;;5034851;28;20182;-71
2023/03/03 03:44:41;;;;;;;39.83;27.03;;;2.70;99.90;;;;;;5046046;28;20188;-72
2023/03/03 03:47:07;;;;;;;43.37;27.47;;;2.80;99.90;;;;;;5038885;28;20604;-71
2023/03/03 03:49:32;;;;;;;38.63;25.97;;;2.80;99.90;;;;;;5039834;28;20225;-71
2023/03/03 03:51:58;;;;;;;44.40;27.63;;;2.90;99.90;;;;;;5043379;28;20182;-71
2023/03/03 03:54:23;;;;;;;38.03;25.63;;;2.90;99.90;;;;;;5046709;28;20188;-70
2023/03/03 03:56:49;;;;;;;40.47;27.30;;;2.90;99.90;;;;;;5037695;28;20240;-71
2023/03/03 03:59:14;;;;;;;36.33;25.00;;;3.00;99.90;;;;;;5041936;28;20193;-71
2023/03/03 04:01:40;;;;;;;41.13;26.40;;;3.00;99.90;;;;;;5043336;28;20595;-71
2023/03/03 04:04:05;;;;;;;39.87;27.67;;;3.00;99.90;;;;;;5042612;28;20215;-71
2023/03/03 04:06:31;;;;;;;37.20;25.20;;;2.90;99.90;;;;;;5042770;28;20196;-72
2023/03/03 04:08:57;;;;;;;50.37;28.63;;;2.90;99.90;;;;;;5032310;28;20645;-71
2023/03/03 04:11:22;;;;;;;43.87;29.03;;;2.90;99.90;;;;;;5035920;28;20443;-70
2023/03/03 04:13:48;;;;;;;43.93;30.23;;;2.90;99.90;;;;;;5034734;28;20644;-70
2023/03/03 04:16:13;;;;;;;39.70;26.97;;;2.90;99.90;;;;;;5031673;28;20178;-71
2023/03/03 04:18:41;;;;;;;46.20;26.93;;;2.90;99.90;;;;;;5035646;28;20217;-71
2023/03/03 04:21:11;;;;;;;50.97;30.70;;;3.00;99.90;;;;;;5045785;28;20209;-71
2023/03/03 04:23:36;;;;;;;44.50;28.07;;;3.10;99.90;;;;;;5031744;28;20424;-71
2023/03/03 04:26:03;;;;;;;45.60;28.30;;;3.10;99.90;;;;;;5033774;28;20435;-71
2023/03/03 04:28:28;;;;;;;47.83;31.30;;;3.10;99.90;;;;;;5033657;28;20210;-70
2023/03/03 04:30:54;;;;;;;46.27;30.00;;;3.20;99.90;;;;;;5039866;28;20447;-70
2023/03/03 04:33:19;;;;;;;61.43;34.33;;;3.30;99.90;;;;;;5034919;28;20602;-70
2023/03/03 04:35:45;;;;;;;47.87;31.40;;;3.30;99.90;;;;;;5040573;28;20243;-71
2023/03/03 04:38:10;;;;;;;54.67;32.67;;;3.40;99.90;;;;;;5039026;28;20205;-71
2023/03/03 04:40:36;;;;;;;53.30;32.80;;;3.40;99.90;;;;;;5037269;28;20202;-70
2023/03/03 04:43:01;;;;;;;49.03;31.20;;;3.40;99.90;;;;;;5034687;28;20201;-70
2023/03/03 04:45:27;;;;;;;47.03;31.63;;;3.50;99.90;;;;;;5031154;28;20630;-70
2023/03/03 04:47:52;;;;;;;49.80;29.70;;;3.50;99.90;;;;;;5033973;28;20194;-71
2023/03/03 04:50:18;;;;;;;45.40;29.60;;;3.50;99.90;;;;;;5041707;28;20177;-70
2023/03/03 04:52:44;;;;;;;43.97;30.40;;;3.50;99.90;;;;;;5046293;28;20236;-71
2023/03/03 04:55:09;;;;;;;46.40;30.77;;;3.50;99.90;;;;;;5043522;28;20445;-71
2023/03/03 04:57:35;;;;;;;46.13;30.97;;;3.50;99.90;;;;;;5045488;28;20210;-71
2023/03/03 05:00:01;;;;;;;50.60;30.40;;;3.60;99.90;;;;;;5044816;28;20674;-70
2023/03/03 05:02:27;;;;;;;50.83;31.00;;;3.70;99.90;;;;;;5045279;28;20228;-71
2023/03/03 05:04:52;;;;;;;48.23;31.00;;;3.60;99.90;;;;;;5041939;28;20437;-71
2023/03/03 05:07:18;;;;;;;45.07;31.37;;;3.70;99.90;;;;;;5042238;28;20204;-71
2023/03/03 05:09:44;;;;;;;41.50;28.50;;;3.70;99.90;;;;;;5042775;28;20577;-71
2023/03/03 05:12:09;;;;;;;45.93;30.53;;;3.70;99.90;;;;;;5041018;28;20522;-71
2023/03/03 05:14:35;;;;;;;44.53;29.23;;;3.60;99.90;;;;;;5050018;28;20178;-72
2023/03/03 05:17:02;;;;;;;50.37;31.87;;;3.50;99.90;;;;;;5032298;28;20233;-71
2023/03/03 05:19:27;;;;;;;49.03;31.20;;;3.60;99.90;;;;;;5031765;28;20285;-71
2023/03/03 05:21:53;;;;;;;53.60;32.30;;;3.50;99.90;;;;;;5030770;28;20445;-71
2023/03/03 05:24:19;;;;;;;46.97;31.20;;;3.50;99.90;;;;;;5033116;28;20170;-71
2023/03/03 05:26:44;;;;;;;52.07;32.67;;;3.50;99.90;;;;;;5051463;28;20201;-71
2023/03/03 05:29:10;;;;;;;50.40;30.53;;;3.40;99.90;;;;;;5044848;28;20264;-71
2023/03/03 05:31:36;;;;;;;54.27;34.67;;;3.40;99.90;;;;;;5034255;28;20178;-71
2023/03/03 05:34:01;;;;;;;52.37;32.70;;;3.50;99.90;;;;;;5037666;28;20178;-71
2023/03/03 05:36:27;;;;;;;48.20;31.13;;;3.60;99.90;;;;;;5048536;28;20182;-71
2023/03/03 05:38:52;;;;;;;48.07;31.90;;;3.50;99.90;;;;;;5039455;28;20228;-71
2023/03/03 05:41:18;;;;;;;50.93;31.77;;;3.50;99.90;;;;;;5033940;28;20202;-71
2023/03/03 05:43:43;;;;;;;50.43;31.23;;;3.50;99.90;;;;;;5045582;28;20603;-70
2023/03/03 05:46:09;;;;;;;49.00;31.17;;;3.60;99.90;;;;;;5042637;28;20173;-71
2023/03/03 05:48:35;;;;;;;48.67;32.37;;;3.60;99.90;;;;;;5044698;28;20189;-70
2023/03/03 05:51:00;;;;;;;51.57;33.00;;;3.60;99.90;;;;;;5044827;28;20462;-71
2023/03/03 05:53:27;;;;;;;48.30;31.30;;;3.70;99.90;;;;;;5047016;28;20766;-71
2023/03/03 05:55:53;;;;;;;43.40;32.33;;;3.70;99.90;;;;;;5034343;28;20596;-70
2023/03/03 05:58:19;;;;;;;53.47;33.30;;;3.70;99.90;;;;;;5036000;28;20594;-70
2023/03/03 06:00:44;;;;;;;49.43;33.53;;;3.70;99.90;;;;;;5041325;28;20199;-72
2023/03/03 06:03:10;;;;;;;54.03;33.77;;;3.70;99.90;;;;;;5039398;28;20257;-70
2023/03/03 06:05:35;;;;;;;49.50;32.47;;;3.70;99.90;;;;;;5036531;28;20219;-71
2023/03/03 06:08:01;;;;;;;49.03;32.23;;;3.70;99.90;;;;;;5037038;28;20198;-70
2023/03/03 06:10:27;;;;;;;55.37;31.23;;;3.80;99.90;;;;;;5049207;28;20204;-71
2023/03/03 06:12:53;;;;;;;46.23;31.63;;;3.70;99.90;;;;;;5050063;28;20178;-70
2023/03/03 06:15:20;;;;;;;49.43;33.40;;;3.80;99.90;;;;;;5044804;28;20178;-71
2023/03/03 06:17:45;;;;;;;58.77;34.67;;;3.80;99.90;;;;;;5033754;28;20574;-70
2023/03/03 06:20:11;;;;;;;50.67;32.53;;;3.80;99.90;;;;;;5044554;28;20491;-71
2023/03/03 06:22:36;;;;;;;48.00;33.00;;;3.90;99.90;;;;;;5042900;28;20209;-70
2023/03/03 06:25:02;;;;;;;57.57;34.00;;;3.90;99.90;;;;;;5041572;28;20536;-70
2023/03/03 06:27:28;;;;;;;67.63;40.40;;;3.90;99.90;;;;;;5045187;28;20200;-71
2023/03/03 06:29:53;;;;;;;55.13;38.67;;;4.00;99.90;;;;;;5045272;28;20224;-71
2023/03/03 06:32:19;;;;;;;53.70;34.27;;;4.00;99.90;;;;;;5035584;28;20198;-71
2023/03/03 06:34:45;;;;;;;51.00;35.20;;;3.90;99.90;;;;;;5031715;28;20205;-71
2023/03/03 06:37:10;;;;;;;57.23;35.73;;;4.00;99.90;;;;;;5045483;28;20284;-71
2023/03/03 06:39:36;;;;;;;50.80;33.77;;;3.90;99.90;;;;;;5039272;28;20193;-71
2023/03/03 06:42:01;;;;;;;52.47;31.40;;;3.90;99.90;;;;;;5044888;28;20217;-71
2023/03/03 06:44:27;;;;;;;45.23;31.07;;;4.00;99.90;;;;;;5047322;28;20173;-71
2023/03/03 06:46:52;;;;;;;45.77;31.10;;;4.00;99.90;;;;;;5045171;28;20197;-70
2023/03/03 06:49:18;;;;;;;47.43;30.77;;;4.10;99.90;;;;;;5038748;28;20212;-70
2023/03/03 06:51:45;;;;;;;45.17;31.10;;;4.00;99.90;;;;;;5050254;28;20212;-71
2023/03/03 06:54:16;;;;;;;45.63;31.20;;;4.00;99.90;;;;;;5042461;28;20637;-71
2023/03/03 06:56:43;;;;;;;48.03;30.47;;;4.00;99.90;;;;;;5046333;28;20436;-70
2023/03/03 06:59:18;;;;;;;43.40;30.00;;;4.00;99.90;;;;;;5047850;28;20439;-71
2023/03/03 07:01:45;;;;;;;43.10;29.53;;;4.10;99.90;;;;;;5031722;28;20483;-71
2023/03/03 07:04:32;;;;;;;40.00;29.03;;;4.20;99.90;;;;;;5033411;28;20436;-71
2023/03/03 07:07:06;;;;;;;41.37;29.50;;;4.20;99.90;;;;;;5038624;28;20452;-70
2023/03/03 07:09:32;;;;;;;42.03;28.37;;;4.30;99.90;;;;;;5035740;28;20476;-71
2023/03/03 07:12:09;;;;;;;47.37;30.80;;;4.30;99.90;;;;;;5035076;28;20481;-71
2023/03/03 07:14:41;;;;;;;49.63;31.17;;;4.40;99.90;;;;;;5029687;28;20177;-70
2023/03/03 07:17:17;;;;;;;41.57;29.23;;;4.30;99.90;;;;;;5041477;28;20502;-69
2023/03/03 07:19:44;;;;;;;46.03;31.03;;;4.40;99.90;;;;;;5044949;28;20470;-70
2023/03/03 07:22:12;;;;;;;46.60;29.50;;;4.40;99.90;;;;;;5036044;28;20467;-71
2023/03/03 07:24:38;;;;;;;42.77;29.37;;;4.40;99.90;;;;;;5032344;28;20438;-71
2023/03/03 07:27:16;;;;;;;47.90;29.73;;;4.50;99.90;;;;;;5029496;28;20559;-70
2023/03/03 07:29:42;;;;;;;43.43;28.30;;;4.60;99.90;;;;;;5041372;28;20227;-71
2023/03/03 07:32:24;;;;;;;38.27;26.70;;;4.50;99.90;;;;;;5034623;28;20826;-70
2023/03/03 07:34:52;;;;;;;40.47;27.23;;;4.50;99.90;;;;;;5033599;28;20237;-69
2023/03/03 07:37:37;;;;;;;33.67;27.17;;;4.50;99.90;;;;;;5048510;28;20871;-70
2023/03/03 07:40:32;;;;;;;41.70;27.37;;;4.60;99.90;;;;;;5043792;28;20539;-69
2023/03/03 07:42:59;;;;;;;37.43;26.30;;;4.70;99.90;;;;;;5039437;28;20432;-70
2023/03/03 07:45:28;;;;;;;34.30;22.50;;;4.90;99.90;;;;;;5032941;28;20436;-70
2023/03/03 07:48:15;;;;;;;36.97;25.83;;;4.70;99.90;;;;;;5035984;28;20489;-70
2023/03/03 07:50:40;;;;;;;42.20;27.60;;;4.80;99.90;;;;;;5030766;28;20439;-69
2023/03/03 07:53:27;;;;;;;38.50;25.00;;;4.90;99.90;;;;;;5031231;28;20487;-71
2023/03/03 07:55:53;;;;;;;41.53;24.40;;;5.20;99.90;;;;;;5025852;28;20174;-71
2023/03/03 07:58:34;;;;;;;36.40;25.27;;;5.40;99.90;;;;;;5032299;28;20484;-71
2023/03/03 08:01:34;;;;;;;38.53;27.63;;;5.60;99.90;;;;;;5025305;28;20543;-70
2023/03/03 08:03:59;;;;;;;41.13;27.40;;;6.00;99.90;;;;;;5031236;28;20439;-71
2023/03/03 08:06:34;;;;;;;39.07;27.13;;;6.40;99.90;;;;;;5030721;28;20434;-70
2023/03/03 08:09:08;;;;;;;38.40;26.43;;;6.60;99.90;;;;;;5050900;28;20168;-70
2023/03/03 08:11:35;;;;;;;37.23;26.50;;;6.80;99.90;;;;;;5035691;28;20971;-70
2023/03/03 08:14:08;;;;;;;43.53;26.47;;;7.10;99.90;;;;;;5028638;28;20432;-70
2023/03/03 08:16:37;;;;;;;37.83;26.40;;;7.40;99.90;;;;;;5031109;28;20421;-70
2023/03/03 08:19:04;;;;;;;33.53;26.93;;;7.80;99.90;;;;;;5029987;28;20855;-70
2023/03/03 08:21:31;;;;;;;34.20;27.23;;;8.10;99.90;;;;;;5030421;28;20611;-69
2023/03/03 08:23:57;;;;;;;36.70;26.47;;;8.10;99.90;;;;;;5034041;28;20449;-70
2023/03/03 08:26:25;;;;;;;38.30;27.80;;;8.40;99.90;;;;;;5030300;28;20435;-70
2023/03/03 08:28:52;;;;;;;34.37;26.20;;;8.80;99.90;;;;;;5029786;28;21363;-69
2023/03/03 08:31:18;;;;;;;36.90;25.93;;;9.10;99.90;;;;;;5030850;28;20497;-69
2023/03/03 08:33:44;;;;;;;42.30;27.97;;;9.70;99.90;;;;;;5029964;28;20516;-71
2023/03/03 08:36:11;;;;;;;38.20;27.00;;;9.50;99.90;;;;;;5046311;28;20518;-71
2023/03/03 08:38:37;;;;;;;39.20;26.43;;;9.70;99.90;;;;;;5045486;28;20201;-70
2023/03/03 08:41:03;;;;;;;38.70;27.93;;;9.40;99.90;;;;;;5037905;28;20461;-70
2023/03/03 08:43:29;;;;;;;38.00;29.17;;;9.60;99.90;;;;;;5039419;28;20431;-70
2023/03/03 08:45:59;;;;;;;35.40;26.20;;;10.20;99.90;;;;;;5036932;28;20515;-70
2023/03/03 08:48:26;;;;;;;38.33;27.87;;;10.60;99.90;;;;;;5029999;28;20202;-69
2023/03/03 08:50:52;;;;;;;35.60;27.20;;;11.00;99.90;;;;;;5030102;28;20494;-70
2023/03/03 08:53:20;;;;;;;33.03;26.27;;;11.10;99.90;;;;;;5047885;28;20448;-71
2023/03/03 08:55:46;;;;;;;36.57;29.03;;;11.70;99.00;;;;;;5042367;28;20848;-71
2023/03/03 08:58:13;;;;;;;36.37;27.37;;;11.90;97.20;;;;;;5035462;28;20492;-70
2023/03/03 09:00:39;;;;;;;36.00;27.17;;;12.10;96.50;;;;;;5043886;28;20490;-71
2023/03/03 09:03:06;;;;;;;36.40;28.40;;;12.10;95.80;;;;;;5047770;28;20479;-71
2023/03/03 09:05:32;;;;;;;36.50;25.73;;;12.90;95.00;;;;;;5027132;28;21069;-70
2023/03/03 09:07:59;;;;;;;36.33;28.20;;;13.50;92.70;;;;;;5030389;28;20488;-71
2023/03/03 09:10:28;;;;;;;37.37;29.87;;;14.50;90.30;;;;;;5042590;28;20437;-71
2023/03/03 09:12:57;;;;;;;37.57;30.97;;;14.50;86.60;;;;;;5039662;28;20435;-71
2023/03/03 09:15:31;;;;;;;34.03;28.57;;;14.60;85.10;;;;;;5040317;28;20463;-70
2023/03/03 09:17:58;;;;;;;33.43;29.13;;;14.80;82.40;;;;;;5031045;28;20459;-71
2023/03/03 09:20:31;;;;;;;32.30;28.80;;;15.30;80.80;;;;;;5032452;28;21042;-71
2023/03/03 09:22:57;;;;;;;35.37;30.40;;;15.70;77.90;;;;;;5031700;28;20490;-70
2023/03/03 09:25:32;;;;;;;37.73;31.27;;;15.40;75.60;;;;;;5044393;28;20449;-70
2023/03/03 09:27:57;;;;;;;37.43;30.03;;;14.00;77.80;;;;;;5030099;28;20455;-70
2023/03/03 09:30:25;;;;;;;33.97;29.00;;;13.40;81.20;;;;;;5033449;28;20443;-72
2023/03/03 09:32:52;;;;;;;34.60;29.50;;;13.00;82.40;;;;;;5031259;28;20183;-71
2023/03/03 09:35:37;;;;;;;34.83;29.50;;;12.60;84.30;;;;;;5034552;28;20439;-70
2023/03/03 09:38:20;;;;;;;35.23;28.37;;;12.10;87.00;;;;;;5029370;28;20460;-71
2023/03/03 09:40:48;;;;;;;31.23;25.80;;;12.60;87.10;;;;;;5034343;28;20964;-71
2023/03/03 09:43:51;;;;;;;32.67;27.37;;;12.90;84.40;;;;;;5039968;28;20424;-71
2023/03/03 09:46:56;;;;;;;28.70;25.67;;;12.70;84.50;;;;;;5039901;28;20439;-70
2023/03/03 09:49:34;;;;;;;28.50;25.40;;;14.40;79.90;;;;;;5027977;28;20579;-70
2023/03/03 09:52:19;;;;;;;29.93;26.70;;;15.10;75.60;;;;;;5042902;28;20492;-70
2023/03/03 09:54:48;;;;;;;34.07;28.40;;;14.30;76.60;;;;;;5038029;28;20437;-71
2023/03/03 09:57:19;;;;;;;33.83;26.27;;;13.60;78.30;;;;;;5027775;28;20464;-71
2023/03/03 10:00:04;;;;;;;31.47;26.13;;;13.20;79.50;;;;;;5032172;28;20471;-70
2023/03/03 10:02:56;;;;;;;29.70;26.50;;;13.20;81.00;;;;;;5026396;28;20439;-70
2023/03/03 10:05:42;;;;;;;38.13;28.40;;;13.40;80.00;;;;;;5036442;28;20463;-70
2023/03/03 10:08:50;;;;;;;31.33;27.13;;;13.70;78.70;;;;;;5033450;28;20517;-72
2023/03/03 10:11:24;;;;;;;32.60;26.20;;;13.90;77.30;;;;;;5039913;28;20534;-70
2023/03/03 10:14:25;;;;;;;33.00;26.93;;;13.90;78.70;;;;;;5048775;28;20804;-70
2023/03/03 10:17:32;;;;;;;29.43;25.40;;;14.10;77.40;;;;;;5020452;28;20537;-71
2023/03/03 10:20:33;;;;;;;31.30;27.20;;;13.80;77.50;;;;;;5038041;28;20823;-70
2023/03/03 10:23:13;;;;;;;32.53;27.00;;;13.20;79.20;;;;;;5036630;28;20446;-69
2023/03/03 10:25:51;;;;;;;30.50;26.73;;;13.40;79.20;;;;;;5038210;28;20431;-70
2023/03/03 10:28:39;;;;;;;34.17;27.67;;;13.50;78.40;;;;;;5028921;28;20809;-70
2023/03/03 10:31:31;;;;;;;34.67;27.40;;;13.60;78.80;;;;;;5033865;28;20436;-71
2023/03/03 10:34:36;;;;;;;29.70;26.50;;;13.00;79.60;;;;;;5029611;28;20424;-71
2023/03/03 10:37:15;;;;;;;36.00;27.37;;;12.80;80.30;;;;;;5044917;28;20471;-70
2023/03/03 10:39:56;;;;;;;31.50;27.50;;;12.50;81.50;;;;;;5047079;28;20956;-70
2023/03/03 10:42:59;;;;;;;30.93;26.67;;;12.70;81.40;;;;;;5046740;28;20459;-70
2023/03/03 10:45:44;;;;;;;32.27;28.87;;;13.90;78.70;;;;;;5026601;28;20444;-70
2023/03/03 10:48:17;;;;;;;32.07;28.70;;;15.70;73.30;;;;;;5029551;28;20452;-72
2023/03/03 10:50:43;;;;;;;30.70;27.67;;;16.80;69.40;;;;;;5030572;28;20432;-70
2023/03/03 10:53:33;;;;;;;30.67;27.37;;;17.50;66.20;;;;;;5046854;28;20407;-71
2023/03/03 10:56:20;;;;;;;30.37;27.30;;;17.50;64.70;;;;;;5052467;28;20215;-71
2023/03/03 10:58:52;;;;;;;32.20;28.80;;;18.90;57.20;;;;;;5051800;28;20435;-70
2023/03/03 11:01:32;;;;;;;35.93;30.30;;;20.00;52.50;;;;;;5052190;28;20451;-70
2023/03/03 11:04:21;;;;;;;33.43;29.83;;;19.80;51.60;;;;;;5051358;28;20412;-73
2023/03/03 11:07:09;;;;;;;31.43;28.20;;;19.10;52.10;;;;;;5032093;28;20448;-70
2023/03/03 11:09:53;;;;;;;32.53;29.20;;;18.40;52.70;;;;;;5021137;28;20515;-70
2023/03/03 11:13:08;;;;;;;29.83;26.80;;;18.20;52.20;;;;;;5032071;28;20902;-69
2023/03/03 11:15:54;;;;;;;31.30;27.90;;;17.00;53.50;;;;;;5012605;28;20508;-68
2023/03/03 11:18:23;;;;;;;31.23;27.90;;;15.80;55.80;;;;;;5011464;28;20519;-69
2023/03/03 11:21:22;;;;;;;33.90;28.50;;;14.90;57.50;;;;;;5018396;28;20480;-68
2023/03/03 11:24:06;;;;;;;30.77;26.70;;;14.90;58.70;;;;;;5030415;28;20766;-70
2023/03/03 11:26:42;;;;;;;30.07;26.97;;;15.10;58.20;;;;;;5031818;28;20433;-69
2023/03/03 11:29:29;;;;;;;31.30;27.63;;;14.60;59.10;;;;;;5031205;28;20421;-68
2023/03/03 11:32:07;;;;;;;31.57;28.00;;;14.50;60.20;;;;;;5030527;28;20443;-70
2023/03/03 11:34:51;;;;;;;32.30;25.97;;;14.50;60.10;;;;;;5023263;28;20819;-71
2023/03/03 11:37:26;;;;;;;32.77;27.97;;;14.00;61.40;;;;;;5012061;28;20426;-70
2023/03/03 11:39:56;;;;;;;30.90;25.90;;;13.40;71.40;;;;;;5011562;28;20472;-69
2023/03/03 11:42:51;;;;;;;30.60;26.33;;;13.10;74.50;;;;;;5023296;28;20429;-70
2023/03/03 11:45:34;;;;;;;31.50;27.43;;;12.90;75.30;;;;;;5031173;28;20536;-70
2023/03/03 11:48:30;;;;;;;33.23;27.53;;;12.50;77.30;;;;;;5028621;28;20536;-70
2023/03/03 11:51:22;;;;;;;39.47;29.90;;;12.30;78.90;;;;;;5029536;28;20455;-69
2023/03/03 11:54:07;;;;;;;31.80;27.70;;;11.90;81.30;;;;;;5031795;28;20416;-72
2023/03/03 11:56:39;;;;;;;32.97;28.53;;;11.80;82.20;;;;;;5032022;28;20957;-70
2023/03/03 11:59:14;;;;;;;35.57;26.03;;;11.80;83.90;;;;;;5031035;28;20755;-69
2023/03/03 12:01:56;;;;;;;33.77;27.10;;;12.10;82.90;;;;;;5031757;28;20428;-69
2023/03/03 12:04:35;;;;;;;33.13;26.50;;;12.50;81.20;;;;;;5031910;28;20425;-69
2023/03/03 12:07:36;;;;;;;33.00;29.20;;;12.90;80.10;;;;;;5031534;28;20860;-70
2023/03/03 12:10:26;;;;;;;31.73;28.23;;;13.30;77.40;;;;;;5029767;28;20933;-69
2023/03/03 12:13:16;;;;;;;27.30;24.37;;;13.60;76.30;;;;;;5030223;28;20417;-69
2023/03/03 12:16:08;;;;;;;30.90;26.60;;;13.70;75.60;;;;;;5026752;28;20479;-69
2023/03/03 12:19:05;;;;;;;30.10;26.90;;;14.70;74.40;;;;;;5029584;28;20464;-70
2023/03/03 12:22:03;;;;;;;32.80;27.53;;;17.70;66.20;;;;;;5030952;28;20472;-70
2023/03/03 12:24:50;;;;;;;29.87;27.00;;;20.10;52.80;;;;;;5030540;28;20439;-70
2023/03/03 12:27:19;;;;;;;31.03;27.70;;;22.30;48.00;;;;;;5030613;28;20780;-70
2023/03/03 12:30:01;;;;;;;30.10;26.97;;;23.50;45.40;;;;;;5030736;28;20425;-70
2023/03/03 12:32:49;;;;;;;31.20;26.83;;;24.70;41.90;;;;;;5032377;28;20421;-69
2023/03/03 12:35:19;;;;;;;29.60;26.80;;;25.00;38.60;;;;;;5035325;28;20836;-70
2023/03/03 12:37:52;;;;;;;30.07;27.17;;;25.10;37.60;;;;;;5035185;28;20475;-72
2023/03/03 12:40:23;;;;;;;30.50;27.73;;;25.30;37.30;;;;;;5034506;28;20866;-72
2023/03/03 12:43:13;;;;;;;28.43;25.90;;;26.30;35.30;;;;;;5035170;28;20432;-71
2023/03/03 12:46:04;;;;;;;31.20;28.30;;;26.60;34.10;;;;;;5035010;28;20465;-71
2023/03/03 12:48:43;;;;;;;30.93;27.77;;;26.80;33.50;;;;;;5034323;28;20923;-72
2023/03/03 12:51:50;;;;;;;32.00;29.00;;;26.10;32.40;;;;;;5030292;28;20444;-70
2023/03/03 12:54:32;;;;;;;28.93;26.27;;;25.30;33.10;;;;;;5032339;28;20446;-72
2023/03/03 12:57:28;;;;;;;30.10;27.13;;;25.10;33.10;;;;;;5028751;28;20970;-69
2023/03/03 13:00:23;;;;;;;28.77;26.07;;;25.40;33.80;;;;;;5047936;28;20504;-71